Time;durP1;ratioP1;P1;durP2;ratioP2;P2;SDS_P1;SDS_P2;PMS_P1;PMS_P2;Temp;Humidity;BMP_temperature;BMP_pressure;BME280_temperature;BME280_humidity;BME280_pressure;Samples;Min_cycle;Max_cycle;Signal;HPM_P1;HPM_P2
2022/05/02 00:01:07;;;;;;;;;;;23.70;41.40;;;;;;1611286;72;658;-57
2022/05/02 00:03:09;;;;;;;;;;;23.70;41.40;;;;;;1614023;73;669;-57
2022/05/02 00:05:11;;;;;;;;;;;23.70;41.30;;;;;;1609873;73;695;-56
2022/05/02 00:07:13;;;;;;;;;;;23.70;41.30;;;;;;1619513;73;600;-58
2022/05/02 00:09:15;;;;;;;;;;;23.70;41.40;;;;;;1617675;73;1438;-57
2022/05/02 00:11:16;;;;;;;;;;;23.70;41.30;;;;;;1617076;72;695;-55
2022/05/02 00:13:18;;;;;;;;;;;23.70;41.40;;;;;;1612421;73;697;-56
2022/05/02 00:15:20;;;;;;;;;;;23.70;41.30;;;;;;1621229;73;675;-57
2022/05/02 00:18:04;;;;;;;;;;;23.70;41.30;;;;;;1622248;73;1932;-57
2022/05/02 00:19:29;;;;;;;;;;;23.70;41.40;;;;;;1616958;73;1270;-55
2022/05/02 00:21:30;;;;;;;;;;;23.60;41.30;;;;;;1615172;73;653;-54
2022/05/02 00:23:32;;;;;;;;;;;23.60;41.30;;;;;;1613607;72;1448;-58
2022/05/02 00:25:34;;;;;;;;;;;23.60;41.30;;;;;;1614273;72;816;-55
2022/05/02 00:27:38;;;;;;;;;;;23.70;41.40;;;;;;1625214;72;623;-55
2022/05/02 00:29:40;;;;;;;;;;;23.70;41.30;;;;;;1616942;73;1135;-55
2022/05/02 00:31:42;;;;;;;;;;;23.70;41.40;;;;;;1620650;72;663;-56
2022/05/02 00:33:43;;;;;;;;;;;23.70;41.40;;;;;;1617414;72;653;-52
2022/05/02 00:35:45;;;;;;;;;;;23.60;41.30;;;;;;1614191;73;818;-57
2022/05/02 00:37:47;;;;;;;;;;;23.60;41.30;;;;;;1624895;72;1915;-56
2022/05/02 00:39:49;;;;;;;;;;;23.70;41.40;;;;;;1614705;73;1148;-56
2022/05/02 00:41:51;;;;;;;;;;;23.70;41.40;;;;;;1626964;73;651;-56
2022/05/02 00:43:54;;;;;;;;;;;23.70;41.40;;;;;;1609112;73;664;-56
2022/05/02 00:45:56;;;;;;;;;;;23.60;41.30;;;;;;1624430;73;582;-53
2022/05/02 00:48:00;;;;;;;;;;;23.70;41.50;;;;;;1623981;72;734;-55
2022/05/02 00:50:03;;;;;;;;;;;23.60;41.30;;;;;;1617917;73;1167;-55
2022/05/02 00:52:05;;;;;;;;;;;23.60;41.30;;;;;;1618173;72;1218;-56
2022/05/02 00:54:07;;;;;;;;;;;23.60;41.50;;;;;;1616317;72;681;-55
2022/05/02 00:56:09;;;;;;;;;;;23.70;41.60;;;;;;1615661;73;1935;-55
2022/05/02 00:58:11;;;;;;;;;;;23.60;41.50;;;;;;1618530;73;677;-55
2022/05/02 01:00:13;;;;;;;;;;;23.60;41.50;;;;;;1626763;72;1146;-55
2022/05/02 01:02:15;;;;;;;;;;;23.60;41.50;;;;;;1617008;73;1006;-54
2022/05/02 01:04:17;;;;;;;;;;;23.60;41.50;;;;;;1612866;73;649;-54
2022/05/02 01:08:39;;;;;;;;;;;23.70;41.70;;;;;;1534358;75;742;-59
2022/05/02 01:10:41;;;;;;;;;;;23.60;41.50;;;;;;1521665;75;1204;-58
2022/05/02 01:12:43;;;;;;;;;;;23.60;41.60;;;;;;1529773;77;776;-56
2022/05/02 01:14:47;;;;;;;;;;;23.60;41.70;;;;;;1518383;77;679;-58
2022/05/02 01:16:49;;;;;;;;;;;23.60;41.70;;;;;;1522128;75;1914;-59
2022/05/02 01:18:51;;;;;;;;;;;23.70;41.80;;;;;;1521811;76;764;-59
2022/05/02 01:20:53;;;;;;;;;;;23.60;41.60;;;;;;1536476;76;1461;-56
2022/05/02 01:22:55;;;;;;;;;;;23.60;41.50;;;;;;1527320;76;778;-58
2022/05/02 01:24:57;;;;;;;;;;;23.60;41.50;;;;;;1537275;75;919;-59
2022/05/02 01:26:59;;;;;;;;;;;23.60;41.50;;;;;;1532284;75;654;-58
2022/05/02 01:29:01;;;;;;;;;;;23.60;41.50;;;;;;1532902;75;778;-58
2022/05/02 01:31:03;;;;;;;;;;;23.60;41.50;;;;;;1522453;75;1134;-58
2022/05/02 01:33:05;;;;;;;;;;;23.70;41.60;;;;;;1526607;75;656;-59
2022/05/02 01:35:07;;;;;;;;;;;23.70;41.50;;;;;;1517697;75;1713;-58
2022/05/02 01:37:09;;;;;;;;;;;23.70;41.50;;;;;;1538678;75;1940;-58
2022/05/02 01:39:11;;;;;;;;;;;23.60;41.50;;;;;;1542790;75;1146;-57
2022/05/02 01:41:13;;;;;;;;;;;23.60;41.50;;;;;;1531275;75;684;-57
2022/05/02 01:43:15;;;;;;;;;;;23.60;41.50;;;;;;1526991;77;733;-54
2022/05/02 01:45:17;;;;;;;;;;;23.60;41.50;;;;;;1526062;75;739;-58
2022/05/02 01:47:19;;;;;;;;;;;23.60;41.50;;;;;;1546300;77;1532;-59
2022/05/02 01:49:21;;;;;;;;;;;23.60;41.50;;;;;;1532461;77;1189;-58
2022/05/02 01:51:23;;;;;;;;;;;23.60;41.40;;;;;;1524104;75;737;-59
2022/05/02 01:53:25;;;;;;;;;;;23.60;41.40;;;;;;1535499;75;731;-59
2022/05/02 01:55:27;;;;;;;;;;;23.60;41.40;;;;;;1524437;75;642;-58
2022/05/02 01:57:28;;;;;;;;;;;23.60;41.30;;;;;;1516380;77;1930;-58
2022/05/02 01:59:30;;;;;;;;;;;23.60;41.30;;;;;;1519873;75;1174;-57
2022/05/02 02:01:32;;;;;;;;;;;23.60;41.30;;;;;;1537374;75;1543;-55
2022/05/02 02:03:34;;;;;;;;;;;23.60;41.30;;;;;;1531403;75;651;-59
2022/05/02 02:05:51;;;;;;;;;;;23.60;41.40;;;;;;1532798;75;648;-58
2022/05/02 02:07:53;;;;;;;;;;;23.60;41.30;;;;;;1516888;75;806;-56
2022/05/02 02:09:55;;;;;;;;;;;23.50;41.30;;;;;;1530217;75;1142;-59
2022/05/02 02:11:57;;;;;;;;;;;23.60;41.30;;;;;;1531027;75;803;-57
2022/05/02 02:13:59;;;;;;;;;;;23.50;41.30;;;;;;1529991;77;619;-55
2022/05/02 02:16:01;;;;;;;;;;;23.60;41.30;;;;;;1532005;75;1538;-58
2022/05/02 02:18:03;;;;;;;;;;;23.60;41.30;;;;;;1544542;75;1935;-58
2022/05/02 02:20:06;;;;;;;;;;;23.60;41.30;;;;;;1525397;77;1119;-58
2022/05/02 02:22:16;;;;;;;;;;;23.50;41.40;;;;;;1530654;77;761;-57
2022/05/02 02:24:18;;;;;;;;;;;23.60;41.50;;;;;;1538630;75;771;-58
2022/05/02 02:26:20;;;;;;;;;;;23.50;41.50;;;;;;1530462;75;604;-55
2022/05/02 02:28:22;;;;;;;;;;;23.60;41.50;;;;;;1521654;75;754;-54
2022/05/02 02:30:24;;;;;;;;;;;23.60;41.50;;;;;;1537489;75;1660;-55
2022/05/02 02:32:26;;;;;;;;;;;23.50;41.60;;;;;;1530616;75;676;-58
2022/05/02 02:34:28;;;;;;;;;;;23.50;41.50;;;;;;1529917;75;732;-58
2022/05/02 02:36:30;;;;;;;;;;;23.50;41.50;;;;;;1533735;77;665;-58
2022/05/02 02:38:32;;;;;;;;;;;23.60;41.60;;;;;;1535386;75;1953;-58
2022/05/02 02:40:33;;;;;;;;;;;23.50;41.60;;;;;;1517804;75;1180;-56
2022/05/02 02:42:36;;;;;;;;;;;23.60;41.60;;;;;;1530867;75;678;-55
2022/05/02 02:44:38;;;;;;;;;;;23.50;41.60;;;;;;1534875;75;1546;-57
2022/05/02 02:46:40;;;;;;;;;;;23.50;41.70;;;;;;1537753;75;704;-55
2022/05/02 02:48:42;;;;;;;;;;;23.60;41.70;;;;;;1524982;75;661;-59
2022/05/02 02:50:43;;;;;;;;;;;23.50;41.70;;;;;;1522991;77;1096;-58
2022/05/02 02:52:45;;;;;;;;;;;23.60;41.80;;;;;;1540677;75;779;-59
2022/05/02 02:54:47;;;;;;;;;;;23.60;41.80;;;;;;1541633;77;697;-59
2022/05/02 02:56:49;;;;;;;;;;;23.60;41.80;;;;;;1513786;77;1940;-58
2022/05/02 02:58:51;;;;;;;;;;;23.60;41.70;;;;;;1525259;75;1173;-55
2022/05/02 03:00:53;;;;;;;;;;;23.60;41.70;;;;;;1513618;75;1107;-58
2022/05/02 03:02:55;;;;;;;;;;;23.50;41.80;;;;;;1539013;75;741;-55
2022/05/02 03:07:17;;;;;;;;;;;23.50;41.90;;;;;;1527536;75;1600;-57
2022/05/02 03:09:18;;;;;;;;;;;23.60;41.80;;;;;;1533235;75;1182;-58
2022/05/02 03:11:20;;;;;;;;;;;23.60;41.60;;;;;;1542560;75;742;-57
2022/05/02 03:13:23;;;;;;;;;;;23.60;41.50;;;;;;1532237;75;1561;-59
2022/05/02 03:15:24;;;;;;;;;;;23.70;41.60;;;;;;1535588;75;646;-58
2022/05/02 03:17:26;;;;;;;;;;;23.60;41.40;;;;;;1529040;77;1940;-58
2022/05/02 03:19:28;;;;;;;;;;;23.70;41.50;;;;;;1518592;75;1100;-56
2022/05/02 03:21:30;;;;;;;;;;;23.70;41.40;;;;;;1531972;75;695;-59
2022/05/02 03:23:32;;;;;;;;;;;23.70;41.50;;;;;;1537829;75;747;-58
2022/05/02 03:25:34;;;;;;;;;;;23.70;41.50;;;;;;1526660;75;674;-56
2022/05/02 03:27:36;;;;;;;;;;;23.70;41.30;;;;;;1530992;75;1441;-57
2022/05/02 03:29:38;;;;;;;;;;;23.80;41.30;;;;;;1537183;75;1095;-58
2022/05/02 03:31:40;;;;;;;;;;;23.70;41.30;;;;;;1518500;75;686;-55
2022/05/02 03:33:41;;;;;;;;;;;23.70;41.30;;;;;;1527163;77;685;-55
2022/05/02 03:35:43;;;;;;;;;;;23.70;41.30;;;;;;1537426;77;721;-55
2022/05/02 03:37:45;;;;;;;;;;;23.70;41.40;;;;;;1541426;75;1985;-59
2022/05/02 03:39:47;;;;;;;;;;;23.70;41.50;;;;;;1532913;77;1114;-54
2022/05/02 03:41:49;;;;;;;;;;;23.60;41.30;;;;;;1514908;75;760;-59
2022/05/02 03:43:51;;;;;;;;;;;23.60;41.40;;;;;;1516725;77;772;-59
2022/05/02 03:45:53;;;;;;;;;;;23.60;41.50;;;;;;1516500;77;762;-58
2022/05/02 03:47:55;;;;;;;;;;;23.50;41.50;;;;;;1523529;77;765;-58
2022/05/02 03:49:57;;;;;;;;;;;23.60;41.40;;;;;;1517377;77;1138;-57
2022/05/02 03:51:59;;;;;;;;;;;23.50;41.50;;;;;;1517359;77;770;-57
2022/05/02 03:54:01;;;;;;;;;;;23.60;41.40;;;;;;1522055;75;1545;-56
2022/05/02 03:56:03;;;;;;;;;;;23.60;41.50;;;;;;1520813;77;717;-59
2022/05/02 03:58:05;;;;;;;;;;;23.60;41.50;;;;;;1532041;77;1939;-55
2022/05/02 04:00:07;;;;;;;;;;;23.60;41.50;;;;;;1524733;75;1103;-58
2022/05/02 04:02:09;;;;;;;;;;;23.50;41.50;;;;;;1540351;75;791;-56
2022/05/02 04:04:11;;;;;;;;;;;23.50;41.50;;;;;;1537842;75;719;-58
2022/05/02 04:06:13;;;;;;;;;;;23.50;41.50;;;;;;1529997;77;680;-58
2022/05/02 04:08:15;;;;;;;;;;;23.50;41.50;;;;;;1537545;75;1534;-59
2022/05/02 04:10:17;;;;;;;;;;;23.50;41.50;;;;;;1530956;75;1146;-58
2022/05/02 04:12:19;;;;;;;;;;;23.50;41.50;;;;;;1541164;75;800;-59
2022/05/02 04:14:21;;;;;;;;;;;23.50;41.50;;;;;;1518045;75;675;-56
2022/05/02 04:16:23;;;;;;;;;;;23.50;41.50;;;;;;1539167;75;670;-58
2022/05/02 04:18:25;;;;;;;;;;;23.50;41.50;;;;;;1536555;77;1923;-55
2022/05/02 04:20:26;;;;;;;;;;;23.50;41.50;;;;;;1516301;77;1087;-58
2022/05/02 04:22:28;;;;;;;;;;;23.50;41.60;;;;;;1534002;75;1565;-58
2022/05/02 04:24:31;;;;;;;;;;;23.50;41.50;;;;;;1518327;75;725;-57
2022/05/02 04:26:33;;;;;;;;;;;23.50;41.50;;;;;;1535262;75;666;-57
2022/05/02 04:28:35;;;;;;;;;;;23.50;41.50;;;;;;1513404;77;639;-59
2022/05/02 04:30:37;;;;;;;;;;;23.50;41.50;;;;;;1525621;75;1136;-59
2022/05/02 04:32:39;;;;;;;;;;;23.50;41.50;;;;;;1530669;77;768;-55
2022/05/02 04:34:41;;;;;;;;;;;23.40;41.40;;;;;;1518454;77;671;-59
2022/05/02 04:36:43;;;;;;;;;;;23.40;41.40;;;;;;1521219;75;1608;-58
2022/05/02 04:38:45;;;;;;;;;;;23.40;41.50;;;;;;1532549;75;1915;-57
2022/05/02 04:40:47;;;;;;;;;;;23.40;41.50;;;;;;1529979;75;1102;-59
2022/05/02 04:42:49;;;;;;;;;;;23.40;41.50;;;;;;1523071;75;730;-56
2022/05/02 04:44:51;;;;;;;;;;;23.40;41.50;;;;;;1518586;77;636;-56
2022/05/02 04:46:52;;;;;;;;;;;23.40;41.50;;;;;;1538015;77;686;-59
2022/05/02 04:48:54;;;;;;;;;;;23.50;41.60;;;;;;1525888;77;711;-59
2022/05/02 04:50:56;;;;;;;;;;;23.40;41.40;;;;;;1529986;75;1627;-59
2022/05/02 04:52:58;;;;;;;;;;;23.40;41.40;;;;;;1537017;75;762;-59
2022/05/02 04:55:00;;;;;;;;;;;23.40;41.40;;;;;;1530395;75;849;-58
2022/05/02 04:57:02;;;;;;;;;;;23.40;41.50;;;;;;1529654;75;664;-58
2022/05/02 04:59:04;;;;;;;;;;;23.50;41.50;;;;;;1519923;77;1954;-58
2022/05/02 05:01:06;;;;;;;;;;;23.50;41.70;;;;;;1521544;77;715;-55
2022/05/02 05:03:08;;;;;;;;;;;23.50;41.60;;;;;;1524181;75;765;-56
2022/05/02 05:05:10;;;;;;;;;;;23.50;42.60;;;;;;1531252;75;1352;-55
2022/05/02 05:07:12;;;;;;;;;;;23.60;41.70;;;;;;1533047;75;650;-58
2022/05/02 05:09:14;;;;;;;;;;;23.50;41.70;;;;;;1528266;75;1071;-58
2022/05/02 05:11:17;;;;;;;;;;;23.50;41.70;;;;;;1523762;75;665;-58
2022/05/02 05:13:19;;;;;;;;;;;23.50;41.60;;;;;;1535945;75;781;-57
2022/05/02 05:17:57;;;;;;;;;;;23.50;41.50;;;;;;1532294;77;1917;-58
2022/05/02 05:20:06;;;;;;;;;;;23.50;41.60;;;;;;1532954;75;1586;-59
2022/05/02 05:22:14;;;;;;;;;;;23.50;41.60;;;;;;1526516;75;1806;-59
2022/05/02 05:24:20;;;;;;;;;;;23.40;41.50;;;;;;1522783;75;704;-58
2022/05/02 05:26:27;;;;;;;;;;;23.40;41.50;;;;;;1518622;75;1825;-58
2022/05/02 05:28:30;;;;;;;;;;;23.40;41.50;;;;;;1519398;77;679;-59
2022/05/02 05:30:34;;;;;;;;;;;23.40;41.50;;;;;;1510512;77;1888;-58
2022/05/02 05:32:44;;;;;;;;;;;23.40;41.50;;;;;;1521186;77;1816;-59
2022/05/02 05:34:56;;;;;;;;;;;23.40;41.50;;;;;;1522237;75;907;-55
2022/05/02 05:37:06;;;;;;;;;;;23.50;41.70;;;;;;1526609;77;790;-56
2022/05/02 05:39:10;;;;;;;;;;;23.40;41.60;;;;;;1534248;76;1932;-58
2022/05/02 05:41:16;;;;;;;;;;;23.50;41.80;;;;;;1539253;75;860;-58
2022/05/02 05:43:24;;;;;;;;;;;23.40;41.70;;;;;;1520952;76;1759;-58
2022/05/02 05:45:36;;;;;;;;;;;23.50;41.80;;;;;;1540116;77;701;-57
2022/05/02 05:47:46;;;;;;;;;;;23.40;41.60;;;;;;1533067;75;1335;-58
2022/05/02 05:50:04;;;;;;;;;;;23.40;41.60;;;;;;1498945;77;1135;-58
2022/05/02 05:52:09;;;;;;;;;;;23.30;41.50;;;;;;1528435;75;649;-58
2022/05/02 05:54:29;;;;;;;;;;;23.40;41.50;;;;;;1518111;77;1127;-57
2022/05/02 05:56:47;;;;;;;;;;;23.40;41.50;;;;;;1524503;75;668;-58
2022/05/02 05:58:51;;;;;;;;;;;23.30;41.40;;;;;;1528807;77;1902;-58
2022/05/02 06:00:53;;;;;;;;;;;23.40;41.40;;;;;;1536921;75;1421;-58
2022/05/02 06:03:02;;;;;;;;;;;23.30;41.40;;;;;;1529324;75;679;-58
2022/05/02 06:05:04;;;;;;;;;;;23.20;41.30;;;;;;1528678;77;656;-56
2022/05/02 06:07:06;;;;;;;;;;;23.30;41.30;;;;;;1535866;77;645;-58
2022/05/02 06:09:08;;;;;;;;;;;23.30;41.30;;;;;;1533522;77;1159;-56
2022/05/02 06:11:10;;;;;;;;;;;23.20;41.20;;;;;;1522587;75;1033;-58
2022/05/02 06:13:13;;;;;;;;;;;23.20;41.20;;;;;;1526392;77;657;-58
2022/05/02 06:19:55;;;;;;;;;;;23.20;41.00;;;;;;1519478;77;1672;-58
2022/05/02 06:21:57;;;;;;;;;;;23.20;41.10;;;;;;1529233;77;752;-58
2022/05/02 06:23:59;;;;;;;;;;;23.20;41.00;;;;;;1523167;75;691;-58
2022/05/02 06:26:01;;;;;;;;;;;23.20;40.70;;;;;;1526558;75;700;-58
2022/05/02 06:28:03;;;;;;;;;;;23.10;40.40;;;;;;1545703;75;767;-58
2022/05/02 06:30:05;;;;;;;;;;;23.10;40.10;;;;;;1530546;75;1178;-57
2022/05/02 06:32:09;;;;;;;;;;;23.10;39.70;;;;;;1518416;75;784;-58
2022/05/02 06:34:11;;;;;;;;;;;23.10;39.40;;;;;;1532838;75;833;-57
2022/05/02 06:36:17;;;;;;;;;;;23.00;38.90;;;;;;1525862;75;744;-56
2022/05/02 06:38:24;;;;;;;;;;;23.00;38.70;;;;;;1528464;77;1947;-57
2022/05/02 06:40:27;;;;;;;;;;;23.00;38.40;;;;;;1533878;75;1164;-55
2022/05/02 06:42:30;;;;;;;;;;;22.90;38.20;;;;;;1528207;77;728;-58
2022/05/02 06:44:52;;;;;;;;;;;22.90;38.10;;;;;;1534181;77;1203;-58
2022/05/02 06:46:56;;;;;;;;;;;22.90;38.20;;;;;;1536425;77;797;-58
2022/05/02 06:48:59;;;;;;;;;;;23.00;38.20;;;;;;1529348;75;677;-57
2022/05/02 06:51:04;;;;;;;;;;;23.00;38.30;;;;;;1524501;77;1107;-58
2022/05/02 06:53:26;;;;;;;;;;;23.00;38.30;;;;;;1531492;77;628;-56
2022/05/02 06:55:30;;;;;;;;;;;22.90;38.30;;;;;;1529242;77;1909;-58
2022/05/02 06:57:36;;;;;;;;;;;22.90;38.40;;;;;;1527803;77;1413;-57
2022/05/02 06:59:40;;;;;;;;;;;22.90;38.40;;;;;;1530033;75;1937;-58
2022/05/02 07:01:49;;;;;;;;;;;22.90;38.40;;;;;;1532626;75;740;-56
2022/05/02 07:04:09;;;;;;;;;;;22.90;38.50;;;;;;1544705;77;684;-57
2022/05/02 07:06:15;;;;;;;;;;;22.80;38.40;;;;;;1528700;73;3045;-54
2022/05/02 07:08:19;;;;;;;;;;;22.90;38.60;;;;;;1499695;77;1587;-54
2022/05/02 07:10:25;;;;;;;;;;;22.90;38.60;;;;;;1515111;77;1201;-54
2022/05/02 07:12:27;;;;;;;;;;;22.80;38.50;;;;;;1522942;77;1452;-56
2022/05/02 07:14:33;;;;;;;;;;;22.90;38.70;;;;;;1524256;76;650;-55
2022/05/02 07:16:37;;;;;;;;;;;22.90;38.70;;;;;;1510833;77;714;-57
2022/05/02 07:18:45;;;;;;;;;;;23.00;38.60;;;;;;1532676;77;1940;-58
2022/05/02 07:20:52;;;;;;;;;;;23.00;38.50;;;;;;1523537;77;1084;-57
2022/05/02 07:23:10;;;;;;;;;;;23.00;38.40;;;;;;1533732;77;2038;-59
2022/05/02 07:25:15;;;;;;;;;;;23.00;38.30;;;;;;1524537;77;2211;-58
2022/05/02 07:27:24;;;;;;;;;;;23.00;38.20;;;;;;1526895;77;664;-57
2022/05/02 07:29:26;;;;;;;;;;;23.10;38.20;;;;;;1531428;77;1135;-58
2022/05/02 07:31:29;;;;;;;;;;;23.10;38.10;;;;;;1538398;77;664;-59
2022/05/02 07:33:32;;;;;;;;;;;23.10;38.10;;;;;;1513736;77;718;-58
2022/05/02 07:35:34;;;;;;;;;;;23.20;38.00;;;;;;1532803;77;1659;-59
2022/05/02 07:37:36;;;;;;;;;;;23.20;37.90;;;;;;1529438;77;660;-57
2022/05/02 07:39:40;;;;;;;;;;;23.30;37.90;;;;;;1531949;76;1940;-57
2022/05/02 07:41:42;;;;;;;;;;;23.30;37.90;;;;;;1522461;77;637;-57
2022/05/02 07:43:44;;;;;;;;;;;23.40;37.80;;;;;;1530832;77;710;-57
2022/05/02 07:45:46;;;;;;;;;;;23.40;37.70;;;;;;1525605;77;696;-58
2022/05/02 07:47:48;;;;;;;;;;;23.30;37.70;;;;;;1532018;77;698;-59
2022/05/02 07:49:50;;;;;;;;;;;23.40;37.70;;;;;;1524388;76;1173;-59
2022/05/02 07:51:52;;;;;;;;;;;23.40;37.60;;;;;;1521252;77;673;-58
2022/05/02 07:53:54;;;;;;;;;;;23.50;37.70;;;;;;1528463;77;1495;-59
2022/05/02 07:55:55;;;;;;;;;;;23.50;37.70;;;;;;1528723;77;703;-58
2022/05/02 07:57:57;;;;;;;;;;;23.50;37.60;;;;;;1525683;77;677;-58
2022/05/02 08:00:00;;;;;;;;;;;23.50;37.40;;;;;;1527923;77;1963;-58
2022/05/02 08:02:02;;;;;;;;;;;23.60;37.30;;;;;;1529714;77;652;-57
2022/05/02 08:04:04;;;;;;;;;;;23.50;37.10;;;;;;1533025;77;789;-58
2022/05/02 08:06:11;;;;;;;;;;;23.50;37.10;;;;;;1531141;77;681;-57
2022/05/02 08:08:13;;;;;;;;;;;23.60;37.10;;;;;;1522336;76;1399;-58
2022/05/02 08:10:26;;;;;;;;;;;23.50;36.80;;;;;;1519531;76;1156;-57
2022/05/02 08:12:36;;;;;;;;;;;23.50;36.40;;;;;;1528649;77;645;-58
2022/05/02 08:14:56;;;;;;;;;;;23.50;36.60;;;;;;1530366;77;685;-57
2022/05/02 08:16:59;;;;;;;;;;;23.50;36.40;;;;;;1534663;77;821;-59
2022/05/02 08:19:03;;;;;;;;;;;23.50;36.00;;;;;;1533491;77;1904;-59
2022/05/02 08:21:13;;;;;;;;;;;23.30;35.20;;;;;;1529426;76;1470;-58
2022/05/02 08:28:33;;;;;;;;;;;23.20;36.50;;;;;;1526738;77;1639;-58
2022/05/02 08:30:36;;;;;;;;;;;23.20;36.50;;;;;;1530305;77;1096;-58
2022/05/02 08:32:42;;;;;;;;;;;23.00;36.40;;;;;;1534090;77;1461;-58
2022/05/02 08:34:45;;;;;;;;;;;23.00;36.70;;;;;;1521064;77;670;-57
2022/05/02 08:36:48;;;;;;;;;;;23.00;36.90;;;;;;1525964;77;1544;-55
2022/05/02 08:38:58;;;;;;;;;;;23.20;37.00;;;;;;1520813;77;1922;-56
2022/05/02 08:41:04;;;;;;;;;;;23.10;37.10;;;;;;1522626;77;1811;-56
2022/05/02 08:43:08;;;;;;;;;;;23.20;37.10;;;;;;1532619;77;660;-58
2022/05/02 08:45:17;;;;;;;;;;;23.20;37.10;;;;;;1528278;77;719;-56
2022/05/02 08:47:27;;;;;;;;;;;23.20;36.90;;;;;;1529077;77;1932;-55
2022/05/02 08:49:47;;;;;;;;;;;23.20;36.90;;;;;;1519481;76;1532;-59
2022/05/02 08:51:50;;;;;;;;;;;23.20;36.50;;;;;;1521021;77;636;-56
2022/05/02 08:54:11;;;;;;;;;;;23.20;36.80;;;;;;1529973;77;702;-57
2022/05/02 08:56:17;;;;;;;;;;;23.20;36.80;;;;;;1527308;77;809;-57
2022/05/02 08:58:40;;;;;;;;;;;23.20;36.60;;;;;;1522562;77;1793;-58
2022/05/02 09:00:49;;;;;;;;;;;23.20;36.30;;;;;;1508017;78;1176;-56
2022/05/02 09:03:08;;;;;;;;;;;23.10;35.50;;;;;;1501761;78;727;-58
2022/05/02 09:05:29;;;;;;;;;;;23.10;36.00;;;;;;1488963;78;1638;-57
2022/05/02 09:07:42;;;;;;;;;;;22.90;36.20;;;;;;1531939;76;775;-56
2022/05/02 09:10:02;;;;;;;;;;;22.90;36.30;;;;;;1519213;76;1145;-57
2022/05/02 09:12:14;;;;;;;;;;;22.90;36.20;;;;;;1523881;76;723;-56
2022/05/02 09:14:24;;;;;;;;;;;22.90;36.30;;;;;;1558499;75;863;-57
2022/05/02 09:16:44;;;;;;;;;;;22.90;35.90;;;;;;1537277;75;687;-58
2022/05/02 09:18:53;;;;;;;;;;;22.80;36.20;;;;;;1553326;75;1926;-56
2022/05/02 09:21:02;;;;;;;;;;;22.90;36.30;;;;;;1554845;75;1046;-56
2022/05/02 09:23:12;;;;;;;;;;;22.90;35.80;;;;;;1550336;75;2030;-56
2022/05/02 09:25:14;;;;;;;;;;;22.90;36.00;;;;;;1551830;75;984;-57
2022/05/02 09:27:21;;;;;;;;;;;22.90;35.80;;;;;;1543811;76;669;-56
2022/05/02 09:29:22;;;;;;;;;;;22.70;35.30;;;;;;1554935;76;1418;-58
2022/05/02 09:31:26;;;;;;;;;;;22.70;35.30;;;;;;1557385;76;1385;-58
2022/05/02 09:33:29;;;;;;;;;;;22.60;35.80;;;;;;1522813;75;1574;-56
2022/05/02 09:35:35;;;;;;;;;;;22.60;35.80;;;;;;1557516;76;737;-57
2022/05/02 09:37:41;;;;;;;;;;;22.60;35.80;;;;;;1533743;76;710;-58
2022/05/02 09:39:46;;;;;;;;;;;22.40;35.20;;;;;;1545007;75;1928;-56
2022/05/02 09:41:52;;;;;;;;;;;22.20;35.50;;;;;;1558647;76;814;-59
2022/05/02 09:51:11;;;;;;;;;;;22.20;36.10;;;;;;1541120;76;892;-55
2022/05/02 09:53:31;;;;;;;;;;;22.20;36.20;;;;;;1558676;76;663;-55
2022/05/02 09:58:05;;;;;;;;;;;22.10;36.70;;;;;;1562019;75;1897;-56
2022/05/02 10:02:27;;;;;;;;;;;22.00;36.80;;;;;;1556664;76;709;-56
2022/05/02 10:04:42;;;;;;;;;;;22.00;36.80;;;;;;1552523;75;668;-56
2022/05/02 10:06:51;;;;;;;;;;;22.10;36.90;;;;;;1540632;76;624;-55
2022/05/02 10:08:53;;;;;;;;;;;22.00;36.80;;;;;;1547739;75;771;-55
2022/05/02 10:11:03;;;;;;;;;;;22.10;36.90;;;;;;1546622;75;1120;-55
2022/05/02 10:13:16;;;;;;;;;;;22.10;37.00;;;;;;1560570;75;1399;-55
2022/05/02 10:15:36;;;;;;;;;;;22.10;37.10;;;;;;1545907;76;1769;-54
2022/05/02 10:17:42;;;;;;;;;;;22.10;37.30;;;;;;1536879;75;674;-56
2022/05/02 10:19:48;;;;;;;;;;;22.20;37.40;;;;;;1549570;76;1935;-57
2022/05/02 10:22:01;;;;;;;;;;;22.40;37.40;;;;;;1551220;76;701;-57
2022/05/02 10:24:04;;;;;;;;;;;22.40;37.50;;;;;;1535899;76;768;-55
2022/05/02 10:26:11;;;;;;;;;;;22.40;37.50;;;;;;1544680;75;701;-54
2022/05/02 10:28:24;;;;;;;;;;;22.50;37.70;;;;;;1548330;76;1829;-57
2022/05/02 10:30:27;;;;;;;;;;;22.50;37.80;;;;;;1553865;75;1770;-56
2022/05/02 10:32:33;;;;;;;;;;;22.50;37.80;;;;;;1555246;76;1873;-56
2022/05/02 10:34:37;;;;;;;;;;;22.60;37.70;;;;;;1554072;75;945;-54
2022/05/02 10:36:39;;;;;;;;;;;22.60;37.70;;;;;;1542544;76;705;-54
2022/05/02 10:38:45;;;;;;;;;;;22.70;37.70;;;;;;1546779;76;725;-56
2022/05/02 10:40:47;;;;;;;;;;;22.70;37.80;;;;;;1557162;75;1928;-54
2022/05/02 10:42:52;;;;;;;;;;;22.80;37.60;;;;;;1558277;75;1400;-54
2022/05/02 10:45:01;;;;;;;;;;;22.70;37.60;;;;;;1557168;75;783;-56
2022/05/02 10:47:03;;;;;;;;;;;22.70;37.60;;;;;;1548873;76;1434;-57
2022/05/02 10:49:12;;;;;;;;;;;22.80;37.70;;;;;;1555250;75;688;-55
2022/05/02 10:51:13;;;;;;;;;;;22.80;37.60;;;;;;1559088;75;1659;-56
2022/05/02 10:53:19;;;;;;;;;;;22.80;37.70;;;;;;1550010;76;716;-57
2022/05/02 10:55:23;;;;;;;;;;;22.80;37.70;;;;;;1560165;75;1730;-56
2022/05/02 10:57:32;;;;;;;;;;;22.90;37.80;;;;;;1553934;76;1842;-55
2022/05/02 10:59:35;;;;;;;;;;;22.80;37.70;;;;;;1559702;75;1947;-55
2022/05/02 11:01:39;;;;;;;;;;;22.90;37.80;;;;;;1546788;76;596;-55
2022/05/02 11:03:49;;;;;;;;;;;22.90;37.80;;;;;;1546106;76;780;-54
2022/05/02 11:05:57;;;;;;;;;;;22.90;37.80;;;;;;1549557;75;880;-56
2022/05/02 11:08:11;;;;;;;;;;;22.90;38.00;;;;;;1524391;76;765;-55
2022/05/02 11:10:14;;;;;;;;;;;22.90;37.90;;;;;;1525379;76;1526;-55
2022/05/02 11:12:17;;;;;;;;;;;23.00;38.10;;;;;;1523248;76;744;-54
2022/05/02 11:14:23;;;;;;;;;;;23.00;38.00;;;;;;1527095;76;737;-55
2022/05/02 11:16:29;;;;;;;;;;;23.00;38.00;;;;;;1525447;76;648;-56
2022/05/02 11:20:57;;;;;;;;;;;23.00;37.90;;;;;;1535478;76;1940;-58
2022/05/02 11:23:17;;;;;;;;;;;23.00;37.90;;;;;;1544473;76;2034;-56
2022/05/02 11:25:23;;;;;;;;;;;23.00;37.90;;;;;;1532470;76;1431;-55
2022/05/02 11:27:26;;;;;;;;;;;23.00;37.90;;;;;;1539577;77;740;-57
2022/05/02 11:29:36;;;;;;;;;;;23.10;37.90;;;;;;1534191;76;2013;-56
2022/05/02 11:31:41;;;;;;;;;;;23.10;38.00;;;;;;1538852;77;670;-57
2022/05/02 11:33:44;;;;;;;;;;;23.00;37.80;;;;;;1519547;76;717;-56
2022/05/02 11:35:50;;;;;;;;;;;23.10;37.90;;;;;;1532165;76;710;-56
2022/05/02 11:37:55;;;;;;;;;;;23.10;37.80;;;;;;1525828;76;805;-55
2022/05/02 11:39:57;;;;;;;;;;;23.10;37.80;;;;;;1541686;75;1939;-58
2022/05/02 11:42:01;;;;;;;;;;;23.10;37.80;;;;;;1531848;76;788;-55
2022/05/02 11:44:11;;;;;;;;;;;23.10;37.80;;;;;;1527308;77;822;-58
2022/05/02 11:46:22;;;;;;;;;;;23.10;37.80;;;;;;1514682;76;778;-55
2022/05/02 11:48:22;;;;;;;;;;;23.10;37.80;;;;;;1541266;75;1494;-56
2022/05/02 11:50:25;;;;;;;;;;;23.10;37.70;;;;;;1547179;75;1139;-56
2022/05/02 11:52:28;;;;;;;;;;;23.10;37.80;;;;;;1530323;77;1473;-56
2022/05/02 11:54:37;;;;;;;;;;;23.10;37.70;;;;;;1550775;75;2029;-57
2022/05/02 11:56:44;;;;;;;;;;;23.10;37.70;;;;;;1533239;76;689;-53
2022/05/02 11:58:48;;;;;;;;;;;23.10;37.60;;;;;;1533376;76;1777;-56
2022/05/02 12:00:55;;;;;;;;;;;23.10;37.70;;;;;;1529531;76;1941;-55
2022/05/02 12:03:01;;;;;;;;;;;23.10;37.70;;;;;;1531563;77;1600;-56
2022/05/02 12:05:12;;;;;;;;;;;23.20;37.70;;;;;;1540415;76;943;-55
2022/05/02 12:07:14;;;;;;;;;;;23.20;37.70;;;;;;1545437;75;1450;-55
2022/05/02 12:09:22;;;;;;;;;;;23.10;37.80;;;;;;1524166;76;1179;-55
2022/05/02 12:11:24;;;;;;;;;;;23.20;37.70;;;;;;1545580;76;690;-55
2022/05/02 12:13:26;;;;;;;;;;;23.20;37.80;;;;;;1542907;75;809;-54
2022/05/02 12:15:28;;;;;;;;;;;23.20;37.80;;;;;;1557664;75;1215;-53
2022/05/02 12:17:30;;;;;;;;;;;23.20;37.80;;;;;;1541234;75;806;-55
2022/05/02 12:19:33;;;;;;;;;;;23.20;37.80;;;;;;1539964;76;1152;-55
2022/05/02 12:21:48;;;;;;;;;;;23.10;37.70;;;;;;1517361;77;1892;-55
2022/05/02 12:23:50;;;;;;;;;;;23.20;37.80;;;;;;1555919;75;687;-53
2022/05/02 12:25:55;;;;;;;;;;;23.20;37.80;;;;;;1555779;75;806;-55
2022/05/02 12:27:57;;;;;;;;;;;23.20;37.80;;;;;;1551008;76;731;-53
2022/05/02 12:30:02;;;;;;;;;;;23.20;37.80;;;;;;1555728;75;1143;-55
2022/05/02 12:32:04;;;;;;;;;;;23.20;37.80;;;;;;1555339;76;1603;-55
2022/05/02 12:34:07;;;;;;;;;;;23.20;37.70;;;;;;1550593;75;702;-53
2022/05/02 12:36:19;;;;;;;;;;;23.20;37.70;;;;;;1544665;75;1594;-54
2022/05/02 12:38:24;;;;;;;;;;;23.20;37.70;;;;;;1557636;75;1073;-54
2022/05/02 12:40:25;;;;;;;;;;;23.20;37.70;;;;;;1562772;75;1955;-57
2022/05/02 12:42:27;;;;;;;;;;;23.20;37.70;;;;;;1558012;75;716;-54
2022/05/02 12:44:30;;;;;;;;;;;23.20;37.70;;;;;;1547333;75;692;-58
2022/05/02 12:46:34;;;;;;;;;;;23.20;37.70;;;;;;1545623;75;1829;-55
2022/05/02 12:48:38;;;;;;;;;;;23.20;37.70;;;;;;1552776;75;1320;-56
2022/05/02 12:50:46;;;;;;;;;;;23.20;37.70;;;;;;1550312;75;1709;-55
2022/05/02 12:52:49;;;;;;;;;;;23.10;37.80;;;;;;1548839;75;696;-53